Valencia, Venezuela
Current Conditions -  °F | °C
As of 10:00 PM on Saturday 20 Dec 2014 (Local Time) from SVVA Reporting Station
Few Clouds Few Clouds  
Wind Chill: 81°   Ceiling: Unl
Heat Index: 83°   Visibility: 6mi
Dew Point: 68°   Wind: 2mph
Humidity: 65%   Direction: 360°N
Pressure: 29.94"   Gusts: NA
Location:  10.23°N, 67.98°W
Report Text: SVVA 210200Z 36002KT 9999 FEW016 27/20 Q1014
Loading
Personal Weather Stations






























Interactive Weather Map New forecast layout! Learn more

10-Day Weather Forecast

Advertisements
Track Severe Weather on mobile